x

Buoy M01 - Jordan Basin (44037) Wave Buoy

10:04am - Sun 29th May 2016 All times are EDT. -4 hours from GMT.

  • Sig Wave height 3.6ft
  • Peak Period 5s
  • Wind
    18mph, 22mph gusts
  • Sea Temp 50°f
  • Air Temp 50°f
  • Sea Pressure 1025.1mb
  • Buoy M01 - Jordan Basin
  • Buoy M01 - Jordan Basin

More Historic Weather Station data

Upgrade to MSW Pro to gain access to the past 30 days of data for over 8000 Wavebouys and Weather Stations around the globe.

Join Pro

Comparision Forecast

View Surf forecast
   
Sun 05/29 10:04am 3.5ft 5s 18 22 mph 1025.1mb 50f 50f
9:04am 3.5ft 5s 16 20 mph 1025mb 50f 51f
8:04am 3.5ft 5s 16 18 mph 1025.1mb 49f 51f
7:04am 3.5ft 5s 16 18 mph 1024.5mb 49f 51f
6:04am 4ft 5s 16 18 mph 1024mb 49f 51f
5:04am 3.5ft 4s 18 20 mph 1023.2mb 50f 51f
4:04am 3.5ft 4s 20 25 mph 1023.1mb 50f 52f
3:04am 3.5ft 5s 20 22 mph 1023.1mb 50f 53f
2:04am 2.5ft 5s 18 20 mph 1022.8mb 50f 53f
1:04am 3ft 5s 13 16 mph 1022.6mb 50f 53f
12:04am 2.5ft 5s 9
mph
1022.4mb 50f 52f
Sat 05/28 11:04pm 2.5ft 6s 7
mph
1022mb 51f 53f
9:04pm 2.5ft 6s 4 7 mph 1021.3mb 50f 53f
8:04pm 2ft 5s 2 4 mph 1020.8mb 51f 53f
7:04pm 2.5ft 5s 4
mph
1020mb 51f 54f
6:04pm 2.5ft 6s 4
mph
1019.5mb 51f 54f
4:04pm 2.5ft 5s 2 4 mph 1018.5mb 52f 57f
3:04pm 2.5ft 5s 2 4 mph 1018.4mb 51f 56f
2:04pm 2.5ft 5s 2
mph
1018.4mb 51f 56f
1:04pm 2.5ft 5s 4 7 mph 1018.2mb 51f 53f
12:04pm 3.5ft 5s 7 9 mph 1018.4mb 50f 53f
11:04am 3.5ft 5s  -  mph - 50f -
9:04am 3.5ft 6s  -  mph - 50f -
7:04am 3.5ft 5s 9 11 mph 1017.2mb 50f 54f
6:04am 3.5ft 5s 7 9 mph 1016.9mb 50f 53f
5:04am 3.5ft 5s 11
mph
1016.2mb 50f 53f
4:04am 3ft 5s 9
mph
1016.5mb 50f 53f
3:04am 3ft 5s 9 11 mph 1016.5mb 50f 52f
2:04am 3ft 5s 9 11 mph 1016.4mb 50f 53f
1:04am 3ft 5s 11
mph
1016.7mb 50f 53f
12:04am 3ft 5s 11 13 mph 1016.8mb 50f 52f
Fri 05/27 11:04pm 3.5ft 6s 11 13 mph 1016.7mb 50f 52f
10:04pm 3ft 5s 9 13 mph 1017.5mb 50f 52f
9:04pm 3ft 5s 11 13 mph 1017.6mb 50f 50f
8:04pm 3ft 5s 9 11 mph 1018.1mb 50f 51f
7:04pm 3.5ft 5s 11
mph
1018.3mb 50f 51f
5:04pm 3.5ft 5s 16 18 mph 1018.8mb 50f 51f
2:04pm 3.5ft 5s 16 20 mph 1020.7mb 51f 51f
1:04pm 4ft 5s 16 20 mph 1021.4mb 51f 51f
12:04pm 4ft 4s 16 18 mph 1021.8mb 51f 51f
8:04am 2.5ft 8s 11 16 mph 1022.7mb 50f 51f
7:04am 3ft 8s 18 20 mph 1022.4mb 51f 51f
6:04am 2.5ft 8s 18 20 mph 1022.8mb 51f 51f
5:04am 2.5ft 8s 11 13 mph 1023.1mb 51f 51f
4:04am 2.5ft 8s 11 13 mph 1022.6mb 51f 52f
3:04am 2.5ft 8s  -  mph - 51f -
2:04am 2.5ft 8s  -  mph - 50f -
1:04am 2.5ft 8s  -  mph - 51f -
12:04am 2ft 6s 4
mph
1022.7mb 52f 53f
Thu 05/26 8:04pm 3ft 8s 2 4 mph 1020.7mb 52f 54f
5:04pm 2.5ft 8s 4
mph
1019.3mb 53f 55f
4:04pm 2.5ft 8s 4 7 mph 1019.1mb 53f 55f
3:04pm 2.5ft 8s 4
mph
1018.8mb 51f 57f
2:04pm  -   -  4 7 mph 1018.6mb - 55f
12:04pm 3ft 8s 7 9 mph 1018.6mb 51f 53f
11:04am 3ft 8s 7 11 mph 1018.6mb 51f 53f
10:04am 3.5ft 8s 9 11 mph 1018.5mb 50f 54f
9:04am 3ft 8s 11
mph
1018mb 50f 54f
8:04am 3ft 8s 9 11 mph 1017.8mb 50f 53f
7:04am  -   -  11 13 mph 1016.9mb - 54f
6:04am 3.5ft 8s 11 13 mph 1016.2mb 50f 55f
4:04am 3.5ft 8s 7 9 mph 1014.6mb 49f 52f
3:04am 3.5ft 8s 7
mph
1014.1mb 49f 51f
2:04am 3.5ft 8s 4
mph
1013.6mb 49f 53f
1:04am 3.5ft 11s 7
mph
1012.8mb 49f 53f
12:04am 3.5ft 8s 9 13 mph 1014mb 49f 50f
Wed 05/25 11:04pm 4ft 8s  -  mph - 50f -
10:04pm 4ft 6s 9 11 mph 1014.3mb 50f 50f
9:04pm 3.5ft 6s 11 13 mph 1014.3mb 50f 51f
8:04pm 3.5ft 8s 11 13 mph 1014.5mb 50f 51f
7:04pm 4ft 8s 11 13 mph 1014.4mb 50f 51f
4:04pm 4ft 8s  -  mph - 50f -